createdAt,value
2022-12-31T00:00:01.100Z,73.82
2022-12-31T00:02:34.659Z,74.40
2022-12-31T00:05:09.377Z,72.00
2022-12-31T00:10:16.806Z,61.90
2022-12-31T00:12:50.265Z,59.90
2022-12-31T00:15:23.953Z,62.40
2022-12-31T00:17:57.453Z,55.97
2022-12-31T00:20:31.308Z,36.25
2022-12-31T00:23:04.989Z,40.20
2022-12-31T00:25:40.163Z,39.15
2022-12-31T00:28:13.618Z,36.35
2022-12-31T00:30:47.097Z,29.85
2022-12-31T00:33:20.709Z,23.48
2022-12-31T00:35:54.145Z,16.73
2022-12-31T00:38:27.764Z,13.85
2022-12-31T00:41:02.643Z,20.77
2022-12-31T00:43:37.045Z,18.67
2022-12-31T00:46:11.709Z,20.50
2022-12-31T00:48:45.287Z,25.02
2022-12-31T00:51:21.050Z,18.52
2022-12-31T00:53:54.519Z,29.75
2022-12-31T00:56:31.391Z,28.80
2022-12-31T00:59:04.935Z,33.35
2022-12-31T01:01:40.495Z,25.98
2022-12-31T01:04:15.760Z,20.63
2022-12-31T01:06:49.654Z,25.30
2022-12-31T01:09:23.460Z,22.25
2022-12-31T01:11:58.346Z,20.77
2022-12-31T01:14:32.958Z,22.50
2022-12-31T01:17:06.417Z,14.23
2022-12-31T01:19:40.345Z,26.70
2022-12-31T01:22:13.879Z,38.53
2022-12-31T01:24:47.534Z,36.80
2022-12-31T01:27:22.381Z,37.85
2022-12-31T01:29:56.007Z,44.45
2022-12-31T01:32:29.466Z,36.85
2022-12-31T01:35:03.253Z,38.38
2022-12-31T01:37:36.705Z,43.08
2022-12-31T01:40:11.086Z,42.42
2022-12-31T01:42:45.929Z,37.72
2022-12-31T01:45:19.583Z,51.47
2022-12-31T01:47:58.217Z,60.53
2022-12-31T01:50:34.180Z,73.00
2022-12-31T01:53:11.573Z,92.45
2022-12-31T01:55:49.587Z,61.65
2022-12-31T01:58:29.327Z,66.50
2022-12-31T02:01:03.392Z,58.28
2022-12-31T02:03:37.662Z,71.65
2022-12-31T02:06:17.609Z,64.75
2022-12-31T02:08:51.822Z,57.78
2022-12-31T02:11:29.657Z,56.47
2022-12-31T02:14:07.885Z,49.58
2022-12-31T02:16:49.945Z,57.25
2022-12-31T02:20:03.305Z,55.25
2022-12-31T02:23:07.035Z,61.80
2022-12-31T02:26:17.565Z,55.10
2022-12-31T02:29:21.944Z,56.20
2022-12-31T02:32:01.512Z,56.92
2022-12-31T02:34:41.115Z,59.17
2022-12-31T02:37:17.075Z,58.53
2022-12-31T02:39:51.127Z,52.88
2022-12-31T02:42:24.910Z,37.78
2022-12-31T02:44:58.350Z,53.72
2022-12-31T02:47:48.134Z,40.20
2022-12-31T02:50:38.747Z,43.38
2022-12-31T02:53:23.873Z,42.90
2022-12-31T02:56:04.995Z,36.63
2022-12-31T02:59:01.154Z,29.58
2022-12-31T03:01:55.517Z,32.92
2022-12-31T03:04:36.476Z,33.65
2022-12-31T03:07:12.504Z,28.88
2022-12-31T03:09:46.158Z,38.40
2022-12-31T03:12:40.133Z,29.05
2022-12-31T03:15:21.906Z,31.77
2022-12-31T03:18:01.233Z,30.35
2022-12-31T03:20:56.792Z,32.25
2022-12-31T03:23:33.824Z,28.13
2022-12-31T03:26:09.879Z,27.67
2022-12-31T03:28:47.879Z,27.65
2022-12-31T03:31:21.562Z,26.33
2022-12-31T03:33:55.297Z,25.13
2022-12-31T03:36:30.319Z,27.10
2022-12-31T03:39:04.165Z,23.52
2022-12-31T03:41:37.652Z,23.70
2022-12-31T03:44:11.517Z,27.20
2022-12-31T03:46:45.010Z,27.73
2022-12-31T03:49:18.887Z,29.95
2022-12-31T03:51:53.761Z,25.75
2022-12-31T03:54:27.401Z,26.88
2022-12-31T03:57:01.859Z,25.25
2022-12-31T03:59:35.686Z,28.02
2022-12-31T04:02:09.398Z,20.15
2022-12-31T04:04:43.111Z,25.85
2022-12-31T04:07:18.096Z,27.83
2022-12-31T04:09:51.760Z,54.25
2022-12-31T04:12:25.266Z,42.70
2022-12-31T04:14:58.939Z,38.08
2022-12-31T04:17:32.727Z,50.25
2022-12-31T04:20:07.433Z,38.10
2022-12-31T04:22:42.418Z,49.50
2022-12-31T04:25:18.013Z,48.42
2022-12-31T04:27:51.452Z,38.00
2022-12-31T04:30:25.235Z,29.77
2022-12-31T04:32:58.906Z,16.17
2022-12-31T04:35:32.374Z,12.40
2022-12-31T04:38:07.459Z,12.85
2022-12-31T04:41:00.986Z,13.75
2022-12-31T04:43:34.799Z,17.58
2022-12-31T04:46:08.554Z,10.45
2022-12-31T04:48:42.589Z,9.25
2022-12-31T04:51:16.467Z,11.02
2022-12-31T04:53:51.905Z,10.57
2022-12-31T04:56:25.845Z,14.30
2022-12-31T04:58:59.718Z,8.95
2022-12-31T05:01:33.847Z,6.72
2022-12-31T05:04:07.373Z,6.30
2022-12-31T05:06:41.141Z,6.97
2022-12-31T05:09:16.004Z,7.38
2022-12-31T05:11:49.656Z,6.32
2022-12-31T05:14:23.335Z,8.00
2022-12-31T05:16:58.632Z,7.93
2022-12-31T05:19:32.159Z,5.57
2022-12-31T05:22:23.569Z,7.50
2022-12-31T05:24:59.300Z,5.32
2022-12-31T05:27:33.036Z,5.15
2022-12-31T05:30:07.764Z,6.07
2022-12-31T05:32:41.905Z,7.05
2022-12-31T05:35:15.658Z,6.55
2022-12-31T05:37:49.119Z,9.63
2022-12-31T05:40:24.184Z,7.07
2022-12-31T05:42:57.711Z,5.45
2022-12-31T05:45:31.601Z,5.25
2022-12-31T05:48:05.441Z,9.07
2022-12-31T05:50:38.914Z,6.45
2022-12-31T05:53:14.564Z,5.22
2022-12-31T05:55:49.879Z,6.65
2022-12-31T05:58:23.350Z,6.40
2022-12-31T06:00:57.043Z,7.10
2022-12-31T06:03:30.618Z,5.18
2022-12-31T06:06:04.134Z,7.93
2022-12-31T06:08:37.790Z,7.47
2022-12-31T06:11:12.844Z,6.43
2022-12-31T06:13:46.337Z,4.78
2022-12-31T06:16:20.074Z,5.55
2022-12-31T06:18:53.698Z,10.57
2022-12-31T06:21:27.471Z,7.32
2022-12-31T06:24:01.226Z,9.43
2022-12-31T06:26:36.404Z,8.75
2022-12-31T06:29:10.446Z,4.05
2022-12-31T06:31:44.460Z,6.40
2022-12-31T06:34:18.008Z,5.75
2022-12-31T06:36:51.666Z,6.90
2022-12-31T06:39:25.403Z,4.88
2022-12-31T06:42:00.296Z,6.93
2022-12-31T06:44:33.826Z,7.07
2022-12-31T06:47:07.471Z,7.10
2022-12-31T06:49:41.181Z,5.22
2022-12-31T06:52:14.958Z,7.57
2022-12-31T06:54:49.182Z,7.72
2022-12-31T06:57:24.679Z,6.32
2022-12-31T06:59:58.727Z,9.70
2022-12-31T07:02:51.301Z,9.25
2022-12-31T07:05:43.098Z,5.47
2022-12-31T07:08:27.702Z,7.78
2022-12-31T07:11:06.443Z,12.63
2022-12-31T07:14:00.466Z,9.30
2022-12-31T07:16:45.469Z,11.73
2022-12-31T07:19:28.668Z,5.55
2022-12-31T07:22:03.811Z,6.85
2022-12-31T07:24:37.905Z,6.68
2022-12-31T07:27:30.909Z,9.25
2022-12-31T07:30:11.263Z,8.05
2022-12-31T07:33:33.316Z,8.60
2022-12-31T07:36:21.499Z,8.52
2022-12-31T07:39:01.535Z,10.10
2022-12-31T07:41:52.064Z,9.45
2022-12-31T07:44:42.229Z,10.25
2022-12-31T07:47:23.123Z,8.43
2022-12-31T07:49:57.445Z,8.05
2022-12-31T07:52:31.467Z,10.30
2022-12-31T07:55:05.757Z,9.30
2022-12-31T07:57:47.020Z,11.65
2022-12-31T08:00:21.360Z,10.02
2022-12-31T08:03:15.278Z,10.73
2022-12-31T08:05:53.575Z,23.88
2022-12-31T08:08:37.436Z,21.60
2022-12-31T08:11:18.001Z,15.23
2022-12-31T08:13:53.983Z,11.70
2022-12-31T08:16:28.123Z,8.40
2022-12-31T08:19:03.991Z,7.88
2022-12-31T08:21:55.677Z,7.25
2022-12-31T08:24:38.030Z,7.63
2022-12-31T08:27:20.204Z,5.15
2022-12-31T08:30:03.583Z,10.20
2022-12-31T08:32:44.240Z,8.25
2022-12-31T08:35:34.968Z,6.10
2022-12-31T08:38:18.613Z,6.47
2022-12-31T08:40:59.920Z,8.27
2022-12-31T08:43:45.765Z,7.45
2022-12-31T08:46:27.262Z,5.78
2022-12-31T08:49:01.360Z,5.18
2022-12-31T08:51:37.047Z,6.55
2022-12-31T08:54:12.396Z,5.25
2022-12-31T08:56:52.747Z,6.57
2022-12-31T08:59:35.166Z,6.07
2022-12-31T09:02:35.785Z,5.30
2022-12-31T09:05:19.769Z,5.82
2022-12-31T09:08:04.952Z,6.82
2022-12-31T09:10:47.416Z,6.55
2022-12-31T09:13:30.640Z,5.55
2022-12-31T09:16:14.058Z,4.55
2022-12-31T09:18:47.941Z,6.97
2022-12-31T09:21:21.865Z,5.85
2022-12-31T09:23:57.359Z,5.85
2022-12-31T09:26:40.451Z,5.32
2022-12-31T09:29:24.591Z,4.55
2022-12-31T09:32:03.575Z,4.40
2022-12-31T09:34:44.222Z,4.22
2022-12-31T09:37:23.005Z,4.40
2022-12-31T09:40:01.622Z,6.57
2022-12-31T09:42:58.985Z,5.05
2022-12-31T09:45:56.346Z,5.40
2022-12-31T09:48:57.217Z,5.90
2022-12-31T09:51:32.300Z,5.05
2022-12-31T09:54:35.055Z,5.10
2022-12-31T09:57:32.680Z,5.20
2022-12-31T10:00:13.502Z,3.25
2022-12-31T10:03:06.447Z,3.60
2022-12-31T10:08:31.075Z,12.20
2022-12-31T10:11:13.058Z,4.05
2022-12-31T10:14:00.564Z,6.50
2022-12-31T10:17:01.278Z,8.13
2022-12-31T10:20:05.770Z,7.35
2022-12-31T10:23:04.993Z,6.43
2022-12-31T10:25:54.682Z,6.13
2022-12-31T10:28:38.735Z,4.30
2022-12-31T10:31:30.209Z,4.18
2022-12-31T10:34:15.759Z,5.03
2022-12-31T10:36:56.131Z,14.70
2022-12-31T10:39:51.373Z,7.22
2022-12-31T10:42:56.978Z,5.18
2022-12-31T10:46:20.880Z,5.15
2022-12-31T10:49:24.939Z,4.75
2022-12-31T10:52:42.095Z,5.77
2022-12-31T10:55:57.702Z,4.60
2022-12-31T10:59:08.695Z,4.35
2022-12-31T11:01:50.281Z,5.40
2022-12-31T11:05:07.539Z,5.88
2022-12-31T11:07:57.506Z,5.40
2022-12-31T11:11:02.095Z,4.63
2022-12-31T11:14:13.086Z,4.55
2022-12-31T11:17:11.467Z,6.45
2022-12-31T11:19:58.793Z,3.72
2022-12-31T11:22:52.100Z,5.15
2022-12-31T11:25:41.212Z,4.43
2022-12-31T11:28:42.405Z,3.10
2022-12-31T11:31:51.195Z,4.00
2022-12-31T11:34:49.174Z,6.50
2022-12-31T11:37:33.767Z,5.57
2022-12-31T11:40:33.464Z,11.82
2022-12-31T11:43:20.951Z,4.25
2022-12-31T11:46:48.638Z,5.15
2022-12-31T11:49:43.994Z,5.43
2022-12-31T11:52:40.931Z,5.47
2022-12-31T11:55:36.173Z,4.10
2022-12-31T11:58:15.441Z,6.72
2022-12-31T12:00:56.186Z,6.25
2022-12-31T12:03:30.432Z,8.20
2022-12-31T12:06:04.797Z,18.27
2022-12-31T12:08:39.100Z,17.08
2022-12-31T12:11:21.791Z,14.70
2022-12-31T12:16:29.825Z,12.27
2022-12-31T12:19:05.677Z,13.93
2022-12-31T12:21:47.564Z,20.52
2022-12-31T12:24:23.171Z,13.80
2022-12-31T12:26:58.779Z,20.70
2022-12-31T12:29:35.294Z,11.20
2022-12-31T12:32:16.925Z,12.75
2022-12-31T12:34:50.499Z,12.02
2022-12-31T12:37:30.227Z,12.70
2022-12-31T12:40:06.579Z,11.60
2022-12-31T12:42:49.675Z,15.10
2022-12-31T12:45:25.140Z,9.80
2022-12-31T12:48:02.284Z,6.88
2022-12-31T12:50:40.534Z,8.07
2022-12-31T12:53:29.102Z,5.93
2022-12-31T12:56:13.557Z,8.30
2022-12-31T12:59:01.763Z,6.95
2022-12-31T13:01:40.683Z,7.28
2022-12-31T13:04:37.201Z,7.53
2022-12-31T13:07:22.792Z,7.55
2022-12-31T13:10:16.861Z,9.40
2022-12-31T13:18:44.402Z,7.43
2022-12-31T13:21:32.840Z,5.80
2022-12-31T13:24:18.852Z,6.65
2022-12-31T13:26:58.095Z,7.45
2022-12-31T13:29:34.407Z,5.95
2022-12-31T13:32:13.810Z,7.70
2022-12-31T13:34:50.674Z,8.50
2022-12-31T13:37:29.532Z,9.85
2022-12-31T13:40:07.877Z,8.25
2022-12-31T13:42:48.409Z,10.18
2022-12-31T13:45:28.156Z,8.65
2022-12-31T13:48:08.270Z,7.95
2022-12-31T13:50:51.168Z,6.93
2022-12-31T13:53:28.157Z,10.95
2022-12-31T13:56:08.315Z,14.68
2022-12-31T13:58:47.034Z,12.10
2022-12-31T14:01:23.427Z,7.13
2022-12-31T14:04:06.395Z,5.43
2022-12-31T14:06:46.313Z,12.52
2022-12-31T14:09:23.734Z,10.40
2022-12-31T14:12:21.668Z,14.85
2022-12-31T14:15:04.157Z,32.58
2022-12-31T14:17:41.695Z,28.15
2022-12-31T14:20:25.278Z,28.40
2022-12-31T14:23:08.580Z,15.88
2022-12-31T14:25:49.105Z,29.92
2022-12-31T14:28:31.653Z,20.90
2022-12-31T14:31:13.900Z,32.17
2022-12-31T14:33:56.604Z,21.52
2022-12-31T14:36:41.905Z,12.85
2022-12-31T14:39:29.957Z,8.57
2022-12-31T14:42:17.060Z,26.60
2022-12-31T14:45:23.045Z,20.15
2022-12-31T14:48:03.273Z,11.20
2022-12-31T14:50:37.871Z,71.20
2022-12-31T14:53:23.794Z,45.00
2022-12-31T14:56:02.568Z,20.05
2022-12-31T14:58:37.901Z,41.90
2022-12-31T15:01:22.681Z,79.70
2022-12-31T15:03:58.699Z,43.83
2022-12-31T15:06:52.123Z,63.40
2022-12-31T15:09:44.752Z,65.43
2022-12-31T15:12:34.375Z,107.40
2022-12-31T15:15:37.502Z,74.90
2022-12-31T15:18:32.981Z,24.38
2022-12-31T15:21:32.853Z,37.65
2022-12-31T15:24:19.306Z,15.98
2022-12-31T15:26:57.435Z,17.15
2022-12-31T15:29:33.966Z,29.95
2022-12-31T15:32:16.947Z,23.48
2022-12-31T15:35:02.994Z,38.70
2022-12-31T15:37:37.235Z,36.92
2022-12-31T15:40:21.200Z,18.17
2022-12-31T15:42:59.814Z,20.30
2022-12-31T15:45:36.441Z,22.83
2022-12-31T15:48:16.501Z,13.82
2022-12-31T15:50:52.613Z,13.82
2022-12-31T15:53:30.579Z,15.05
2022-12-31T15:56:04.454Z,11.60
2022-12-31T15:58:39.989Z,12.40
2022-12-31T16:01:17.916Z,13.65
2022-12-31T16:03:56.668Z,18.20
2022-12-31T16:06:33.948Z,10.82
2022-12-31T16:09:11.001Z,19.90
2022-12-31T16:11:44.850Z,28.48
2022-12-31T16:14:24.821Z,23.17
2022-12-31T16:17:00.992Z,32.63
2022-12-31T16:19:37.102Z,77.88
2022-12-31T16:22:15.346Z,137.45
2022-12-31T16:25:28.918Z,116.53
2022-12-31T16:27:50.931Z,87.65
2022-12-31T16:30:29.067Z,66.97
2022-12-31T16:33:04.332Z,64.07
2022-12-31T16:35:38.426Z,46.90
2022-12-31T16:38:15.145Z,43.85
2022-12-31T16:41:08.898Z,30.73
2022-12-31T16:43:43.798Z,35.70
2022-12-31T16:46:23.036Z,33.03
2022-12-31T16:48:59.429Z,42.78
2022-12-31T16:51:35.218Z,47.13
2022-12-31T16:54:19.209Z,49.05
2022-12-31T16:56:53.581Z,42.20
2022-12-31T16:59:34.970Z,43.50
2022-12-31T17:02:19.304Z,50.80
2022-12-31T17:04:56.323Z,36.63
2022-12-31T17:07:41.683Z,47.80
2022-12-31T17:10:21.516Z,39.60
2022-12-31T17:13:27.666Z,27.38
2022-12-31T17:15:52.649Z,33.85
2022-12-31T17:18:30.369Z,81.82
2022-12-31T17:21:09.077Z,85.28
2022-12-31T17:23:44.881Z,72.63
2022-12-31T17:26:25.504Z,63.97
2022-12-31T17:29:00.556Z,44.25
2022-12-31T17:31:36.853Z,43.47
2022-12-31T17:34:23.614Z,48.60
2022-12-31T17:37:02.295Z,54.35
2022-12-31T17:39:47.924Z,54.53
2022-12-31T17:42:29.517Z,57.83
2022-12-31T17:45:07.021Z,57.75
2022-12-31T17:47:42.673Z,105.68
2022-12-31T17:50:23.613Z,105.55
2022-12-31T17:53:00.444Z,107.47
2022-12-31T17:55:34.207Z,100.07
2022-12-31T17:58:08.404Z,66.18
2022-12-31T18:00:42.005Z,66.72
2022-12-31T18:03:15.517Z,59.83
2022-12-31T18:05:50.407Z,51.65
2022-12-31T18:08:24.125Z,60.28
2022-12-31T18:10:58.049Z,65.90
2022-12-31T18:13:31.596Z,74.45
2022-12-31T18:16:05.409Z,59.40
2022-12-31T18:18:40.123Z,66.88
2022-12-31T18:21:20.963Z,71.65
2022-12-31T18:26:32.695Z,133.23
2022-12-31T18:29:15.472Z,99.93
2022-12-31T18:31:50.283Z,98.90
2022-12-31T18:34:23.778Z,103.63
2022-12-31T18:37:00.885Z,90.50
2022-12-31T18:39:34.334Z,109.53
2022-12-31T18:42:07.923Z,99.68
2022-12-31T18:44:41.440Z,89.78
2022-12-31T18:47:16.947Z,85.80
2022-12-31T18:49:50.524Z,85.55
2022-12-31T18:52:25.536Z,80.32
2022-12-31T18:54:59.183Z,77.05
2022-12-31T18:57:32.694Z,82.07
2022-12-31T19:00:07.623Z,83.00
2022-12-31T19:02:41.123Z,95.70
2022-12-31T19:05:26.869Z,106.38
2022-12-31T19:08:01.910Z,158.05
2022-12-31T19:10:35.970Z,146.85
2022-12-31T19:13:12.945Z,152.75
2022-12-31T19:15:48.368Z,72.32
2022-12-31T19:18:21.894Z,81.57
2022-12-31T19:20:55.411Z,101.55
2022-12-31T19:23:30.313Z,90.28
2022-12-31T19:26:03.797Z,99.47
2022-12-31T19:28:37.297Z,97.82
2022-12-31T19:31:10.790Z,201.95
2022-12-31T19:33:44.399Z,171.77
2022-12-31T19:36:19.051Z,171.27
2022-12-31T19:38:53.887Z,253.00
2022-12-31T19:41:27.379Z,285.70
2022-12-31T19:44:01.473Z,245.18
2022-12-31T19:46:35.013Z,217.27
2022-12-31T19:49:08.543Z,259.27
2022-12-31T19:51:42.473Z,245.38
2022-12-31T19:54:17.392Z,237.57
2022-12-31T19:56:50.962Z,204.77
2022-12-31T19:59:24.567Z,229.05
2022-12-31T20:01:58.144Z,215.68
2022-12-31T20:04:31.763Z,206.88
2022-12-31T20:07:05.323Z,177.38
2022-12-31T20:09:40.230Z,182.43
2022-12-31T20:12:13.690Z,123.03
2022-12-31T20:14:47.221Z,140.98
2022-12-31T20:17:20.976Z,142.98
2022-12-31T20:19:54.549Z,144.50
2022-12-31T20:22:28.182Z,149.63
2022-12-31T20:25:03.115Z,128.02
2022-12-31T20:27:38.532Z,136.20
2022-12-31T20:30:12.807Z,122.35
2022-12-31T20:32:46.240Z,140.82
2022-12-31T20:35:20.179Z,104.20
2022-12-31T20:37:53.698Z,126.00
2022-12-31T20:40:28.642Z,122.82
2022-12-31T20:43:02.152Z,125.35
2022-12-31T20:45:35.615Z,113.38
2022-12-31T20:48:09.264Z,115.18
2022-12-31T20:50:42.727Z,97.38
2022-12-31T20:53:16.208Z,111.00
2022-12-31T20:55:51.143Z,97.30
2022-12-31T20:58:24.651Z,107.57
2022-12-31T21:00:58.380Z,101.85
2022-12-31T21:06:25.906Z,120.18
2022-12-31T21:09:01.182Z,122.55
2022-12-31T21:11:54.177Z,102.25
2022-12-31T21:17:00.878Z,94.78
2022-12-31T21:19:34.356Z,99.45
2022-12-31T21:22:07.801Z,95.03
2022-12-31T21:24:41.272Z,93.45
2022-12-31T21:27:16.162Z,107.00
2022-12-31T21:30:17.208Z,112.38
2022-12-31T21:32:43.235Z,109.65
2022-12-31T21:35:42.647Z,112.80
2022-12-31T21:38:10.501Z,119.60
2022-12-31T21:40:44.849Z,106.43
2022-12-31T21:43:19.849Z,106.68
2022-12-31T21:46:01.853Z,98.47
2022-12-31T21:48:35.618Z,122.80
2022-12-31T21:51:12.888Z,100.65
2022-12-31T21:53:46.428Z,110.40
2022-12-31T21:56:21.205Z,98.25
2022-12-31T21:59:15.313Z,113.63
2022-12-31T22:02:05.999Z,101.63
2022-12-31T22:07:33.278Z,97.75
2022-12-31T22:10:07.501Z,99.32
2022-12-31T22:12:41.171Z,87.03
2022-12-31T22:15:16.438Z,74.45
2022-12-31T22:17:50.102Z,83.90
2022-12-31T22:20:27.908Z,78.60
2022-12-31T22:23:02.273Z,80.03
2022-12-31T22:25:36.245Z,74.80
2022-12-31T22:28:37.630Z,90.20
2022-12-31T22:31:05.156Z,73.25
2022-12-31T22:33:39.006Z,72.45
2022-12-31T22:36:14.681Z,77.07
2022-12-31T22:38:48.829Z,68.45
2022-12-31T22:41:23.296Z,77.88
2022-12-31T22:44:03.473Z,77.93
2022-12-31T22:46:38.744Z,78.72
2022-12-31T22:49:12.487Z,78.15
2022-12-31T22:51:55.795Z,85.72
2022-12-31T22:54:32.519Z,97.80
2022-12-31T22:57:06.090Z,92.82
2022-12-31T22:59:39.902Z,86.30
2022-12-31T23:02:14.808Z,100.18
2022-12-31T23:04:48.741Z,84.93
2022-12-31T23:07:22.195Z,79.63
2022-12-31T23:10:13.086Z,77.25
2022-12-31T23:12:46.601Z,81.03
2022-12-31T23:15:37.473Z,86.63
2022-12-31T23:18:29.413Z,119.78
2022-12-31T23:21:20.314Z,99.87
2022-12-31T23:23:55.101Z,116.78
2022-12-31T23:26:28.864Z,132.35
2022-12-31T23:29:02.717Z,124.72
2022-12-31T23:31:36.374Z,135.93
2022-12-31T23:34:11.248Z,146.25
2022-12-31T23:36:45.039Z,139.48
2022-12-31T23:39:18.506Z,141.68
2022-12-31T23:41:52.138Z,166.88
2022-12-31T23:44:25.652Z,154.00
2022-12-31T23:46:59.379Z,168.02
2022-12-31T23:49:34.273Z,166.18
2022-12-31T23:52:07.773Z,160.75
2022-12-31T23:54:41.524Z,157.23
2022-12-31T23:57:14.978Z,159.75
2022-12-31T23:59:48.489Z,159.80
